METAR Data
IDs: Format: Raw Decoded Include TAF

Data at: 0308 UTC 01 Feb 2023

METAR for:KOCQ (Oconto/Blake Mem, WI, US)
Text:KOCQ 010235Z AUTO 21004KT 10SM CLR M16/M21 A3020 RMK AO1 T11561207
Temperature:-15.6°C ( 4°F)
Dewpoint:-20.7°C ( -5°F) [RH = 65%]
Pressure (altimeter):30.20 inches Hg (1022.8 mb)
Winds:from the SSW (210 degrees) at 5 MPH (4 knots; 2.1 m/s)
Visibility:10 or more sm (16+ km)
Ceiling:at least 12,000 feet AGL
Clouds:sky clear below 12,000 feet AGL
QC Flag:automated observation with no human augmentation
Text:KOCQ 010215Z AUTO 22006KT 10SM CLR M15/M21 A3020 RMK AO1 T11551206
Temperature:-15.5°C ( 4°F)
Dewpoint:-20.6°C ( -5°F) [RH = 65%]
Pressure (altimeter):30.20 inches Hg (1022.8 mb)
Winds:from the SW (220 degrees) at 7 MPH (6 knots; 3.1 m/s)
Visibility:10 or more sm (16+ km)
Ceiling:at least 12,000 feet AGL
Clouds:sky clear below 12,000 feet AGL
QC Flag:automated observation with no human augmentation
Text:KOCQ 010155Z AUTO 21006KT 10SM CLR M16/M21 A3021 RMK AO1 T11561208
Temperature:-15.6°C ( 4°F)
Dewpoint:-20.8°C ( -5°F) [RH = 64%]
Pressure (altimeter):30.21 inches Hg (1023.1 mb)
Winds:from the SSW (210 degrees) at 7 MPH (6 knots; 3.1 m/s)
Visibility:10 or more sm (16+ km)
Ceiling:at least 12,000 feet AGL
Clouds:sky clear below 12,000 feet AGL
QC Flag:automated observation with no human augmentation
Text:KOCQ 010115Z AUTO 21006KT 10SM CLR M15/M21 A3021 RMK AO1 T11551208
Temperature:-15.5°C ( 4°F)
Dewpoint:-20.8°C ( -5°F) [RH = 64%]
Pressure (altimeter):30.21 inches Hg (1023.1 mb)
Winds:from the SSW (210 degrees) at 7 MPH (6 knots; 3.1 m/s)
Visibility:10 or more sm (16+ km)
Ceiling:at least 12,000 feet AGL
Clouds:sky clear below 12,000 feet AGL
QC Flag:automated observation with no human augmentation
Text:KOCQ 010055Z AUTO 20005KT 10SM CLR M15/M21 A3021 RMK AO1 T11521209
Temperature:-15.2°C ( 5°F)
Dewpoint:-20.9°C ( -6°F) [RH = 62%]
Pressure (altimeter):30.21 inches Hg (1023.1 mb)
Winds:from the SSW (200 degrees) at 6 MPH (5 knots; 2.6 m/s)
Visibility:10 or more sm (16+ km)
Ceiling:at least 12,000 feet AGL
Clouds:sky clear below 12,000 feet AGL
QC Flag:automated observation with no human augmentation
Text:KOCQ 010035Z AUTO 21005KT 10SM CLR M15/M21 A3021 RMK AO1 T11501211
Temperature:-15.0°C ( 5°F)
Dewpoint:-21.1°C ( -6°F) [RH = 60%]
Pressure (altimeter):30.21 inches Hg (1023.1 mb)
Winds:from the SSW (210 degrees) at 6 MPH (5 knots; 2.6 m/s)
Visibility:10 or more sm (16+ km)
Ceiling:at least 12,000 feet AGL
Clouds:sky clear below 12,000 feet AGL
QC Flag:automated observation with no human augmentation
Text:KOCQ 312355Z AUTO 21007KT 10SM CLR M14/M21 A3022 RMK AO1 T11451215 11128 21146
Temperature:-14.5°C ( 6°F)
Dewpoint:-21.5°C ( -7°F) [RH = 55%]
Pressure (altimeter):30.22 inches Hg (1023.5 mb)
Winds:from the SSW (210 degrees) at 8 MPH (7 knots; 3.6 m/s)
Visibility:10 or more sm (16+ km)
Ceiling:at least 12,000 feet AGL
Clouds:sky clear below 12,000 feet AGL
QC Flag:automated observation with no human augmentation
Text:KOCQ 312335Z AUTO 21005KT 10SM CLR M14/M21 A3022 RMK AO1 T11431215
Temperature:-14.3°C ( 6°F)
Dewpoint:-21.5°C ( -7°F) [RH = 54%]
Pressure (altimeter):30.22 inches Hg (1023.5 mb)
Winds:from the SSW (210 degrees) at 6 MPH (5 knots; 2.6 m/s)
Visibility:10 or more sm (16+ km)
Ceiling:at least 12,000 feet AGL
Clouds:sky clear below 12,000 feet AGL
QC Flag:automated observation with no human augmentation
Text:KOCQ 312315Z AUTO 21006KT 10SM CLR M14/M21 A3022 RMK AO1 T11411215
Temperature:-14.1°C ( 7°F)
Dewpoint:-21.5°C ( -7°F) [RH = 53%]
Pressure (altimeter):30.22 inches Hg (1023.5 mb)
Winds:from the SSW (210 degrees) at 7 MPH (6 knots; 3.1 m/s)
Visibility:10 or more sm (16+ km)
Ceiling:at least 12,000 feet AGL
Clouds:sky clear below 12,000 feet AGL
QC Flag:automated observation with no human augmentation
Text:KOCQ 312255Z AUTO 22007KT 10SM CLR M14/M21 A3022 RMK AO1 T11391215
Temperature:-13.9°C ( 7°F)
Dewpoint:-21.5°C ( -7°F) [RH = 53%]
Pressure (altimeter):30.22 inches Hg (1023.5 mb)
Winds:from the SW (220 degrees) at 8 MPH (7 knots; 3.6 m/s)
Visibility:10 or more sm (16+ km)
Ceiling:at least 12,000 feet AGL
Clouds:sky clear below 12,000 feet AGL
QC Flag:automated observation with no human augmentation
Text:KOCQ 312215Z AUTO 20007KT 10SM CLR M13/M21 A3021 RMK AO1 T11321215
Temperature:-13.2°C ( 8°F)
Dewpoint:-21.5°C ( -7°F) [RH = 50%]
Pressure (altimeter):30.21 inches Hg (1023.1 mb)
Winds:from the SSW (200 degrees) at 8 MPH (7 knots; 3.6 m/s)
Visibility:10 or more sm (16+ km)
Ceiling:at least 12,000 feet AGL
Clouds:sky clear below 12,000 feet AGL
QC Flag:automated observation with no human augmentation
Text:KOCQ 312155Z AUTO 22008KT 10SM CLR M13/M21 A3022 RMK AO1 T11301215
Temperature:-13.0°C ( 9°F)
Dewpoint:-21.5°C ( -7°F) [RH = 49%]
Pressure (altimeter):30.22 inches Hg (1023.5 mb)
Winds:from the SW (220 degrees) at 9 MPH (8 knots; 4.1 m/s)
Visibility:10 or more sm (16+ km)
Ceiling:at least 12,000 feet AGL
Clouds:sky clear below 12,000 feet AGL
QC Flag:automated observation with no human augmentation
Text:KOCQ 312115Z AUTO 23008G14KT 10SM CLR M13/M22 A3022 RMK AO1 T11301220
Temperature:-13.0°C ( 9°F)
Dewpoint:-22.0°C ( -8°F) [RH = 47%]
Pressure (altimeter):30.22 inches Hg (1023.5 mb)
Winds:from the SW (230 degrees) at 9 MPH (8 knots; 4.1 m/s) gusting to 16 MPH (14 knots; 7.2 m/s)
Visibility:10 or more sm (16+ km)
Ceiling:at least 12,000 feet AGL
Clouds:sky clear below 12,000 feet AGL
QC Flag:automated observation with no human augmentation
Text:KOCQ 312055Z AUTO 24009KT 10SM CLR M13/M22 A3023 RMK AO1 T11301220
Temperature:-13.0°C ( 9°F)
Dewpoint:-22.0°C ( -8°F) [RH = 47%]
Pressure (altimeter):30.23 inches Hg (1023.8 mb)
Winds:from the WSW (240 degrees) at 10 MPH (9 knots; 4.6 m/s)
Visibility:10 or more sm (16+ km)
Ceiling:at least 12,000 feet AGL
Clouds:sky clear below 12,000 feet AGL
QC Flag:automated observation with no human augmentation
Text:KOCQ 312035Z AUTO 23011KT 10SM CLR M13/M22 A3024 RMK AO1 T11331222
Temperature:-13.3°C ( 8°F)
Dewpoint:-22.2°C ( -8°F) [RH = 47%]
Pressure (altimeter):30.24 inches Hg (1024.1 mb)
Winds:from the SW (230 degrees) at 13 MPH (11 knots; 5.7 m/s)
Visibility:10 or more sm (16+ km)
Ceiling:at least 12,000 feet AGL
Clouds:sky clear below 12,000 feet AGL
QC Flag:automated observation with no human augmentation
Text:KOCQ 311935Z AUTO 23010KT 10SM CLR M14/M23 A3026 RMK AO1 T11361226
Temperature:-13.6°C ( 8°F)
Dewpoint:-22.6°C ( -9°F) [RH = 47%]
Pressure (altimeter):30.26 inches Hg (1024.8 mb)
Winds:from the SW (230 degrees) at 12 MPH (10 knots; 5.1 m/s)
Visibility:10 or more sm (16+ km)
Ceiling:at least 12,000 feet AGL
Clouds:sky clear below 12,000 feet AGL
QC Flag:automated observation with no human augmentation
Text:KOCQ 311915Z AUTO 23009KT 10SM CLR M14/M23 A3027 RMK AO1 T11381230
Temperature:-13.8°C ( 7°F)
Dewpoint:-23.0°C ( -9°F) [RH = 46%]
Pressure (altimeter):30.27 inches Hg (1025.1 mb)
Winds:from the SW (230 degrees) at 10 MPH (9 knots; 4.6 m/s)
Visibility:10 or more sm (16+ km)
Ceiling:at least 12,000 feet AGL
Clouds:sky clear below 12,000 feet AGL
QC Flag:automated observation with no human augmentation
Text:KOCQ 311835Z AUTO 26010KT 10SM CLR M14/M24 A3029 RMK AO1 T11411238
Temperature:-14.1°C ( 7°F)
Dewpoint:-23.8°C (-11°F) [RH = 44%]
Pressure (altimeter):30.29 inches Hg (1025.8 mb)
Winds:from the W (260 degrees) at 12 MPH (10 knots; 5.1 m/s)
Visibility:10 or more sm (16+ km)
Ceiling:at least 12,000 feet AGL
Clouds:sky clear below 12,000 feet AGL
QC Flag:automated observation with no human augmentation
Text:KOCQ 311735Z AUTO 24008KT 10SM CLR M15/M25 A3032 RMK AO1 T11551250
Temperature:-15.5°C ( 4°F)
Dewpoint:-25.0°C (-13°F) [RH = 44%]
Pressure (altimeter):30.32 inches Hg (1026.8 mb)
Winds:from the WSW (240 degrees) at 9 MPH (8 knots; 4.1 m/s)
Visibility:10 or more sm (16+ km)
Ceiling:at least 12,000 feet AGL
Clouds:sky clear below 12,000 feet AGL
QC Flag:automated observation with no human augmentation
Text:KOCQ 311655Z AUTO 25008G14KT 10SM CLR M16/M25 A3034 RMK AO1 T11651254
Temperature:-16.5°C ( 2°F)
Dewpoint:-25.4°C (-14°F) [RH = 46%]
Pressure (altimeter):30.34 inches Hg (1027.5 mb)
Winds:from the WSW (250 degrees) at 9 MPH (8 knots; 4.1 m/s) gusting to 16 MPH (14 knots; 7.2 m/s)
Visibility:10 or more sm (16+ km)
Ceiling:at least 12,000 feet AGL
Clouds:sky clear below 12,000 feet AGL
QC Flag:automated observation with no human augmentation
Text:KOCQ 311635Z AUTO 25009KT 10SM CLR M17/M26 A3035 RMK AO1 T11731258
Temperature:-17.3°C ( 1°F)
Dewpoint:-25.8°C (-14°F) [RH = 48%]
Pressure (altimeter):30.35 inches Hg (1027.9 mb)
Winds:from the WSW (250 degrees) at 10 MPH (9 knots; 4.6 m/s)
Visibility:10 or more sm (16+ km)
Ceiling:at least 12,000 feet AGL
Clouds:sky clear below 12,000 feet AGL
QC Flag:automated observation with no human augmentation
Text:KOCQ 311615Z AUTO 25007KT 10SM CLR M18/M26 A3036 RMK AO1 T11801259
Temperature:-18.0°C ( -0°F)
Dewpoint:-25.9°C (-15°F) [RH = 50%]
Pressure (altimeter):30.36 inches Hg (1028.2 mb)
Winds:from the WSW (250 degrees) at 8 MPH (7 knots; 3.6 m/s)
Visibility:10 or more sm (16+ km)
Ceiling:at least 12,000 feet AGL
Clouds:sky clear below 12,000 feet AGL
QC Flag:automated observation with no human augmentation
Text:KOCQ 311555Z AUTO 24008KT 10SM CLR M19/M26 A3036 RMK AO1 T11901264
Temperature:-19.0°C ( -2°F)
Dewpoint:-26.4°C (-16°F) [RH = 52%]
Pressure (altimeter):30.36 inches Hg (1028.2 mb)
Winds:from the WSW (240 degrees) at 9 MPH (8 knots; 4.1 m/s)
Visibility:10 or more sm (16+ km)
Ceiling:at least 12,000 feet AGL
Clouds:sky clear below 12,000 feet AGL
QC Flag:automated observation with no human augmentation
Text:KOCQ 311535Z AUTO 25006KT 10SM CLR M20/M26 A3036 RMK AO1 T11971265
Temperature:-19.7°C ( -3°F)
Dewpoint:-26.5°C (-16°F) [RH = 55%]
Pressure (altimeter):30.36 inches Hg (1028.2 mb)
Winds:from the WSW (250 degrees) at 7 MPH (6 knots; 3.1 m/s)
Visibility:10 or more sm (16+ km)
Ceiling:at least 12,000 feet AGL
Clouds:sky clear below 12,000 feet AGL
QC Flag:automated observation with no human augmentation
Text:KOCQ 311515Z AUTO 24006KT 10SM CLR M20/M26 A3036 RMK AO1 T12051265
Temperature:-20.5°C ( -5°F)
Dewpoint:-26.5°C (-16°F) [RH = 59%]
Pressure (altimeter):30.36 inches Hg (1028.2 mb)
Winds:from the WSW (240 degrees) at 7 MPH (6 knots; 3.1 m/s)
Visibility:10 or more sm (16+ km)
Ceiling:at least 12,000 feet AGL
Clouds:sky clear below 12,000 feet AGL
QC Flag:automated observation with no human augmentation
Text:KOCQ 311455Z AUTO 24006KT 10SM CLR M21/M26 A3036 RMK AO1 T12131265
Temperature:-21.3°C ( -6°F)
Dewpoint:-26.5°C (-16°F) [RH = 63%]
Pressure (altimeter):30.36 inches Hg (1028.2 mb)
Winds:from the WSW (240 degrees) at 7 MPH (6 knots; 3.1 m/s)
Visibility:10 or more sm (16+ km)
Ceiling:at least 12,000 feet AGL
Clouds:sky clear below 12,000 feet AGL
QC Flag:automated observation with no human augmentation
Text:KOCQ 311355Z AUTO 25005KT 10SM CLR M23/M27 A3036 RMK AO1 T12331270
Temperature:-23.3°C (-10°F)
Dewpoint:-27.0°C (-17°F) [RH = 72%]
Pressure (altimeter):30.36 inches Hg (1028.2 mb)
Winds:from the WSW (250 degrees) at 6 MPH (5 knots; 2.6 m/s)
Visibility:10 or more sm (16+ km)
Ceiling:at least 12,000 feet AGL
Clouds:sky clear below 12,000 feet AGL
QC Flag:automated observation with no human augmentation
Text:KOCQ 311315Z AUTO 22004KT 10SM CLR M24/M27 A3036 RMK AO1 T12401272
Temperature:-24.0°C (-11°F)
Dewpoint:-27.2°C (-17°F) [RH = 75%]
Pressure (altimeter):30.36 inches Hg (1028.2 mb)
Winds:from the SW (220 degrees) at 5 MPH (4 knots; 2.1 m/s)
Visibility:10 or more sm (16+ km)
Ceiling:at least 12,000 feet AGL
Clouds:sky clear below 12,000 feet AGL
QC Flag:automated observation with no human augmentation
Text:KOCQ 311255Z AUTO 23004KT 10SM CLR M24/M27 A3036 RMK AO1 T12401272
Temperature:-24.0°C (-11°F)
Dewpoint:-27.2°C (-17°F) [RH = 75%]
Pressure (altimeter):30.36 inches Hg (1028.2 mb)
Winds:from the SW (230 degrees) at 5 MPH (4 knots; 2.1 m/s)
Visibility:10 or more sm (16+ km)
Ceiling:at least 12,000 feet AGL
Clouds:sky clear below 12,000 feet AGL
QC Flag:automated observation with no human augmentation
Text:KOCQ 311235Z AUTO 21004KT 10SM CLR M24/M27 A3036 RMK AO1 T12411274
Temperature:-24.1°C (-11°F)
Dewpoint:-27.4°C (-17°F) [RH = 74%]
Pressure (altimeter):30.36 inches Hg (1028.2 mb)
Winds:from the SSW (210 degrees) at 5 MPH (4 knots; 2.1 m/s)
Visibility:10 or more sm (16+ km)
Ceiling:at least 12,000 feet AGL
Clouds:sky clear below 12,000 feet AGL
QC Flag:automated observation with no human augmentation
Text:KOCQ 311215Z AUTO 25003KT 10SM CLR M24/M27 A3036 RMK AO1 T12371271
Temperature:-23.7°C (-11°F)
Dewpoint:-27.1°C (-17°F) [RH = 74%]
Pressure (altimeter):30.36 inches Hg (1028.2 mb)
Winds:from the WSW (250 degrees) at 3 MPH (3 knots; 1.5 m/s)
Visibility:10 or more sm (16+ km)
Ceiling:at least 12,000 feet AGL
Clouds:sky clear below 12,000 feet AGL
QC Flag:automated observation with no human augmentation
Text:KOCQ 311155Z AUTO 23003KT 10SM CLR M24/M27 A3036 RMK AO1 T12441273 11210 21250
Temperature:-24.4°C (-12°F)
Dewpoint:-27.3°C (-17°F) [RH = 77%]
Pressure (altimeter):30.36 inches Hg (1028.2 mb)
Winds:from the SW (230 degrees) at 3 MPH (3 knots; 1.5 m/s)
Visibility:10 or more sm (16+ km)
Ceiling:at least 12,000 feet AGL
Clouds:sky clear below 12,000 feet AGL
QC Flag:automated observation with no human augmentation
Text:KOCQ 311135Z AUTO 22003KT 10SM CLR M25/M28 A3036 RMK AO1 T12471277
Temperature:-24.7°C (-12°F)
Dewpoint:-27.7°C (-18°F) [RH = 76%]
Pressure (altimeter):30.36 inches Hg (1028.2 mb)
Winds:from the SW (220 degrees) at 3 MPH (3 knots; 1.5 m/s)
Visibility:10 or more sm (16+ km)
Ceiling:at least 12,000 feet AGL
Clouds:sky clear below 12,000 feet AGL
QC Flag:automated observation with no human augmentation
Text:KOCQ 311115Z AUTO 00000KT 10SM CLR M24/M27 A3036 RMK AO1 T12381269
Temperature:-23.8°C (-11°F)
Dewpoint:-26.9°C (-16°F) [RH = 76%]
Pressure (altimeter):30.36 inches Hg (1028.2 mb)
Winds:calm
Visibility:10 or more sm (16+ km)
Ceiling:at least 12,000 feet AGL
Clouds:sky clear below 12,000 feet AGL
QC Flag:automated observation with no human augmentation
Text:KOCQ 311055Z AUTO 00000KT 10SM CLR M24/M27 A3036 RMK AO1 T12381272
Temperature:-23.8°C (-11°F)
Dewpoint:-27.2°C (-17°F) [RH = 74%]
Pressure (altimeter):30.36 inches Hg (1028.2 mb)
Winds:calm
Visibility:10 or more sm (16+ km)
Ceiling:at least 12,000 feet AGL
Clouds:sky clear below 12,000 feet AGL
QC Flag:automated observation with no human augmentation
Text:KOCQ 311035Z AUTO 24003KT 10SM CLR M23/M27 A3037 RMK AO1 T12281267
Temperature:-22.8°C ( -9°F)
Dewpoint:-26.7°C (-16°F) [RH = 70%]
Pressure (altimeter):30.37 inches Hg (1028.5 mb)
Winds:from the WSW (240 degrees) at 3 MPH (3 knots; 1.5 m/s)
Visibility:10 or more sm (16+ km)
Ceiling:at least 12,000 feet AGL
Clouds:sky clear below 12,000 feet AGL
QC Flag:automated observation with no human augmentation
Text:KOCQ 310955Z AUTO 26003KT 10SM CLR M22/M27 A3038 RMK AO1 T12231267
Temperature:-22.3°C ( -8°F)
Dewpoint:-26.7°C (-16°F) [RH = 67%]
Pressure (altimeter):30.38 inches Hg (1028.9 mb)
Winds:from the W (260 degrees) at 3 MPH (3 knots; 1.5 m/s)
Visibility:10 or more sm (16+ km)
Ceiling:at least 12,000 feet AGL
Clouds:sky clear below 12,000 feet AGL
QC Flag:automated observation with no human augmentation
Text:KOCQ 310935Z AUTO 25004KT 10SM CLR M22/M27 A3038 RMK AO1 T12211266
Temperature:-22.1°C ( -8°F)
Dewpoint:-26.6°C (-16°F) [RH = 67%]
Pressure (altimeter):30.38 inches Hg (1028.9 mb)
Winds:from the WSW (250 degrees) at 5 MPH (4 knots; 2.1 m/s)
Visibility:10 or more sm (16+ km)
Ceiling:at least 12,000 feet AGL
Clouds:sky clear below 12,000 feet AGL
QC Flag:automated observation with no human augmentation
Text:KOCQ 310915Z AUTO 26005KT 10SM CLR M22/M27 A3039 RMK AO1 T12181266
Temperature:-21.8°C ( -7°F)
Dewpoint:-26.6°C (-16°F) [RH = 65%]
Pressure (altimeter):30.39 inches Hg (1029.2 mb)
Winds:from the W (260 degrees) at 6 MPH (5 knots; 2.6 m/s)
Visibility:10 or more sm (16+ km)
Ceiling:at least 12,000 feet AGL
Clouds:sky clear below 12,000 feet AGL
QC Flag:automated observation with no human augmentation
Text:KOCQ 310855Z AUTO 26005KT 10SM CLR M22/M27 A3039 RMK AO1 T12201267
Temperature:-22.0°C ( -8°F)
Dewpoint:-26.7°C (-16°F) [RH = 66%]
Pressure (altimeter):30.39 inches Hg (1029.2 mb)
Winds:from the W (260 degrees) at 6 MPH (5 knots; 2.6 m/s)
Visibility:10 or more sm (16+ km)
Ceiling:at least 12,000 feet AGL
Clouds:sky clear below 12,000 feet AGL
QC Flag:automated observation with no human augmentation
Text:KOCQ 310835Z AUTO 27007KT 10SM CLR M21/M26 A3040 RMK AO1 T12151265
Temperature:-21.5°C ( -7°F)
Dewpoint:-26.5°C (-16°F) [RH = 64%]
Pressure (altimeter):30.40 inches Hg (1029.5 mb)
Winds:from the W (270 degrees) at 8 MPH (7 knots; 3.6 m/s)
Visibility:10 or more sm (16+ km)
Ceiling:at least 12,000 feet AGL
Clouds:sky clear below 12,000 feet AGL
QC Flag:automated observation with no human augmentation
Text:KOCQ 310815Z AUTO 27006KT 10SM CLR M22/M27 A3039 RMK AO1 T12211267
Temperature:-22.1°C ( -8°F)
Dewpoint:-26.7°C (-16°F) [RH = 66%]
Pressure (altimeter):30.39 inches Hg (1029.2 mb)
Winds:from the W (270 degrees) at 7 MPH (6 knots; 3.1 m/s)
Visibility:10 or more sm (16+ km)
Ceiling:at least 12,000 feet AGL
Clouds:sky clear below 12,000 feet AGL
QC Flag:automated observation with no human augmentation
Text:KOCQ 310755Z AUTO 27006KT 10SM CLR M22/M26 A3039 RMK AO1 T12161263
Temperature:-21.6°C ( -7°F)
Dewpoint:-26.3°C (-15°F) [RH = 66%]
Pressure (altimeter):30.39 inches Hg (1029.2 mb)
Winds:from the W (270 degrees) at 7 MPH (6 knots; 3.1 m/s)
Visibility:10 or more sm (16+ km)
Ceiling:at least 12,000 feet AGL
Clouds:sky clear below 12,000 feet AGL
QC Flag:automated observation with no human augmentation
Text:KOCQ 310715Z AUTO 26005KT 10SM CLR M22/M26 A3039 RMK AO1 T12161264
Temperature:-21.6°C ( -7°F)
Dewpoint:-26.4°C (-16°F) [RH = 65%]
Pressure (altimeter):30.39 inches Hg (1029.2 mb)
Winds:from the W (260 degrees) at 6 MPH (5 knots; 2.6 m/s)
Visibility:10 or more sm (16+ km)
Ceiling:at least 12,000 feet AGL
Clouds:sky clear below 12,000 feet AGL
QC Flag:automated observation with no human augmentation
Text:KOCQ 310655Z AUTO 27005KT 10SM CLR M21/M26 A3038 RMK AO1 T12121261
Temperature:-21.2°C ( -6°F)
Dewpoint:-26.1°C (-15°F) [RH = 65%]
Pressure (altimeter):30.38 inches Hg (1028.9 mb)
Winds:from the W (270 degrees) at 6 MPH (5 knots; 2.6 m/s)
Visibility:10 or more sm (16+ km)
Ceiling:at least 12,000 feet AGL
Clouds:sky clear below 12,000 feet AGL
QC Flag:automated observation with no human augmentation
Text:KOCQ 310635Z AUTO 27005KT 10SM CLR M21/M26 A3039 RMK AO1 T12101260
Temperature:-21.0°C ( -6°F)
Dewpoint:-26.0°C (-15°F) [RH = 64%]
Pressure (altimeter):30.39 inches Hg (1029.2 mb)
Winds:from the W (270 degrees) at 6 MPH (5 knots; 2.6 m/s)
Visibility:10 or more sm (16+ km)
Ceiling:at least 12,000 feet AGL
Clouds:sky clear below 12,000 feet AGL
QC Flag:automated observation with no human augmentation
Text:KOCQ 310555Z AUTO 27004KT 10SM CLR M21/M26 A3039 RMK AO1 T12091261 11162 21209 411321209
Temperature:-20.9°C ( -6°F)
Dewpoint:-26.1°C (-15°F) [RH = 63%]
Pressure (altimeter):30.39 inches Hg (1029.2 mb)
Winds:from the W (270 degrees) at 5 MPH (4 knots; 2.1 m/s)
Visibility:10 or more sm (16+ km)
Ceiling:at least 12,000 feet AGL
Clouds:sky clear below 12,000 feet AGL
QC Flag:automated observation with no human augmentation
Text:KOCQ 310455Z AUTO 26005KT 10SM CLR M20/M26 A3039 RMK AO1 T11971256
Temperature:-19.7°C ( -3°F)
Dewpoint:-25.6°C (-14°F) [RH = 59%]
Pressure (altimeter):30.39 inches Hg (1029.2 mb)
Winds:from the W (260 degrees) at 6 MPH (5 knots; 2.6 m/s)
Visibility:10 or more sm (16+ km)
Ceiling:at least 12,000 feet AGL
Clouds:sky clear below 12,000 feet AGL
QC Flag:automated observation with no human augmentation
Text:KOCQ 310435Z AUTO 26006KT 10SM CLR M20/M26 A3039 RMK AO1 T12001258
Temperature:-20.0°C ( -4°F)
Dewpoint:-25.8°C (-14°F) [RH = 60%]
Pressure (altimeter):30.39 inches Hg (1029.2 mb)
Winds:from the W (260 degrees) at 7 MPH (6 knots; 3.1 m/s)
Visibility:10 or more sm (16+ km)
Ceiling:at least 12,000 feet AGL
Clouds:sky clear below 12,000 feet AGL
QC Flag:automated observation with no human augmentation
Text:KOCQ 310355Z AUTO 26007KT 10SM CLR M19/M25 A3039 RMK AO1 T11921254
Temperature:-19.2°C ( -3°F)
Dewpoint:-25.4°C (-14°F) [RH = 58%]
Pressure (altimeter):30.39 inches Hg (1029.2 mb)
Winds:from the W (260 degrees) at 8 MPH (7 knots; 3.6 m/s)
Visibility:10 or more sm (16+ km)
Ceiling:at least 12,000 feet AGL
Clouds:sky clear below 12,000 feet AGL
QC Flag:automated observation with no human augmentation
Text:KOCQ 310335Z AUTO 26005KT 10SM CLR M19/M25 A3039 RMK AO1 T11891253
Temperature:-18.9°C ( -2°F)
Dewpoint:-25.3°C (-14°F) [RH = 57%]
Pressure (altimeter):30.39 inches Hg (1029.2 mb)
Winds:from the W (260 degrees) at 6 MPH (5 knots; 2.6 m/s)
Visibility:10 or more sm (16+ km)
Ceiling:at least 12,000 feet AGL
Clouds:sky clear below 12,000 feet AGL
QC Flag:automated observation with no human augmentation
Text:KOCQ 310315Z AUTO 27007KT 10SM CLR M19/M25 A3039 RMK AO1 T11871250
Temperature:-18.7°C ( -2°F)
Dewpoint:-25.0°C (-13°F) [RH = 58%]
Pressure (altimeter):30.39 inches Hg (1029.2 mb)
Winds:from the W (270 degrees) at 8 MPH (7 knots; 3.6 m/s)
Visibility:10 or more sm (16+ km)
Ceiling:at least 12,000 feet AGL
Clouds:sky clear below 12,000 feet AGL
QC Flag:automated observation with no human augmentation
Text:KOCQ 310255Z AUTO 28008KT 10SM CLR M18/M25 A3038 RMK AO1 T11851250
Temperature:-18.5°C ( -1°F)
Dewpoint:-25.0°C (-13°F) [RH = 57%]
Pressure (altimeter):30.38 inches Hg (1028.9 mb)
Winds:from the W (280 degrees) at 9 MPH (8 knots; 4.1 m/s)
Visibility:10 or more sm (16+ km)
Ceiling:at least 12,000 feet AGL
Clouds:sky clear below 12,000 feet AGL
QC Flag:automated observation with no human augmentation
Text:KOCQ 310215Z AUTO 27009KT 10SM CLR M18/M24 A3037 RMK AO1 T11811245
Temperature:-18.1°C ( -1°F)
Dewpoint:-24.5°C (-12°F) [RH = 57%]
Pressure (altimeter):30.37 inches Hg (1028.5 mb)
Winds:from the W (270 degrees) at 10 MPH (9 knots; 4.6 m/s)
Visibility:10 or more sm (16+ km)
Ceiling:at least 12,000 feet AGL
Clouds:sky clear below 12,000 feet AGL
QC Flag:automated observation with no human augmentation
Text:KOCQ 310155Z AUTO 26009KT 10SM CLR M18/M24 A3037 RMK AO1 T11761245
Temperature:-17.6°C ( 0°F)
Dewpoint:-24.5°C (-12°F) [RH = 55%]
Pressure (altimeter):30.37 inches Hg (1028.5 mb)
Winds:from the W (260 degrees) at 10 MPH (9 knots; 4.6 m/s)
Visibility:10 or more sm (16+ km)
Ceiling:at least 12,000 feet AGL
Clouds:sky clear below 12,000 feet AGL
QC Flag:automated observation with no human augmentation
Text:KOCQ 310135Z AUTO 26007KT 10SM CLR M17/M24 A3037 RMK AO1 T11751243
Temperature:-17.5°C ( 0°F)
Dewpoint:-24.3°C (-12°F) [RH = 55%]
Pressure (altimeter):30.37 inches Hg (1028.5 mb)
Winds:from the W (260 degrees) at 8 MPH (7 knots; 3.6 m/s)
Visibility:10 or more sm (16+ km)
Ceiling:at least 12,000 feet AGL
Clouds:sky clear below 12,000 feet AGL
QC Flag:automated observation with no human augmentation
Text:KOCQ 310115Z AUTO 26010KT 10SM CLR M17/M24 A3037 RMK AO1 T11721243
Temperature:-17.2°C ( 1°F)
Dewpoint:-24.3°C (-12°F) [RH = 54%]
Pressure (altimeter):30.37 inches Hg (1028.5 mb)
Winds:from the W (260 degrees) at 12 MPH (10 knots; 5.1 m/s)
Visibility:10 or more sm (16+ km)
Ceiling:at least 12,000 feet AGL
Clouds:sky clear below 12,000 feet AGL
QC Flag:automated observation with no human augmentation
Text:KOCQ 310055Z AUTO 26007KT 10SM CLR M17/M24 A3037 RMK AO1 T11701243
Temperature:-17.0°C ( 1°F)
Dewpoint:-24.3°C (-12°F) [RH = 53%]
Pressure (altimeter):30.37 inches Hg (1028.5 mb)
Winds:from the W (260 degrees) at 8 MPH (7 knots; 3.6 m/s)
Visibility:10 or more sm (16+ km)
Ceiling:at least 12,000 feet AGL
Clouds:sky clear below 12,000 feet AGL
QC Flag:automated observation with no human augmentation
Text:KOCQ 310035Z AUTO 27009KT 10SM CLR M17/M24 A3036 RMK AO1 T11701241
Temperature:-17.0°C ( 1°F)
Dewpoint:-24.1°C (-11°F) [RH = 54%]
Pressure (altimeter):30.36 inches Hg (1028.2 mb)
Winds:from the W (270 degrees) at 10 MPH (9 knots; 4.6 m/s)
Visibility:10 or more sm (16+ km)
Ceiling:at least 12,000 feet AGL
Clouds:sky clear below 12,000 feet AGL
QC Flag:automated observation with no human augmentation
Text:KOCQ 310015Z AUTO 26007KT 10SM CLR M16/M24 A3036 RMK AO1 T11651240
Temperature:-16.5°C ( 2°F)
Dewpoint:-24.0°C (-11°F) [RH = 52%]
Pressure (altimeter):30.36 inches Hg (1028.2 mb)
Winds:from the W (260 degrees) at 8 MPH (7 knots; 3.6 m/s)
Visibility:10 or more sm (16+ km)
Ceiling:at least 12,000 feet AGL
Clouds:sky clear below 12,000 feet AGL
QC Flag:automated observation with no human augmentation
Text:KOCQ 302355Z AUTO 27008KT 10SM CLR M16/M24 A3035 RMK AO1 T11611239 11134 21161
Temperature:-16.1°C ( 3°F)
Dewpoint:-23.9°C (-11°F) [RH = 51%]
Pressure (altimeter):30.35 inches Hg (1027.9 mb)
Winds:from the W (270 degrees) at 9 MPH (8 knots; 4.1 m/s)
Visibility:10 or more sm (16+ km)
Ceiling:at least 12,000 feet AGL
Clouds:sky clear below 12,000 feet AGL
QC Flag:automated observation with no human augmentation
Text:KOCQ 302315Z AUTO 26009KT 10SM CLR M15/M24 A3034 RMK AO1 T11551239
Temperature:-15.5°C ( 4°F)
Dewpoint:-23.9°C (-11°F) [RH = 49%]
Pressure (altimeter):30.34 inches Hg (1027.5 mb)
Winds:from the W (260 degrees) at 10 MPH (9 knots; 4.6 m/s)
Visibility:10 or more sm (16+ km)
Ceiling:at least 12,000 feet AGL
Clouds:sky clear below 12,000 feet AGL
QC Flag:automated observation with no human augmentation
Text:KOCQ 302235Z AUTO 27010KT 10SM CLR M14/M24 A3033 RMK AO1 T11421245
Temperature:-14.2°C ( 6°F)
Dewpoint:-24.5°C (-12°F) [RH = 41%]
Pressure (altimeter):30.33 inches Hg (1027.2 mb)
Winds:from the W (270 degrees) at 12 MPH (10 knots; 5.1 m/s)
Visibility:10 or more sm (16+ km)
Ceiling:at least 12,000 feet AGL
Clouds:sky clear below 12,000 feet AGL
QC Flag:automated observation with no human augmentation
Text:KOCQ 302215Z AUTO 29010G15KT 10SM CLR M14/M24 A3033 RMK AO1 T11391245
Temperature:-13.9°C ( 7°F)
Dewpoint:-24.5°C (-12°F) [RH = 40%]
Pressure (altimeter):30.33 inches Hg (1027.2 mb)
Winds:from the WNW (290 degrees) at 12 MPH (10 knots; 5.1 m/s) gusting to 17 MPH (15 knots; 7.7 m/s)
Visibility:10 or more sm (16+ km)
Ceiling:at least 12,000 feet AGL
Clouds:sky clear below 12,000 feet AGL
QC Flag:automated observation with no human augmentation
Text:KOCQ 302155Z AUTO 26012KT 10SM CLR M14/M24 A3033 RMK AO1 T11361244
Temperature:-13.6°C ( 8°F)
Dewpoint:-24.4°C (-12°F) [RH = 40%]
Pressure (altimeter):30.33 inches Hg (1027.2 mb)
Winds:from the W (260 degrees) at 14 MPH (12 knots; 6.2 m/s)
Visibility:10 or more sm (16+ km)
Ceiling:at least 12,000 feet AGL
Clouds:sky clear below 12,000 feet AGL
QC Flag:automated observation with no human augmentation
Text:KOCQ 302135Z AUTO 28012KT 10SM CLR M13/M24 A3033 RMK AO1 T11351244
Temperature:-13.5°C ( 8°F)
Dewpoint:-24.4°C (-12°F) [RH = 39%]
Pressure (altimeter):30.33 inches Hg (1027.2 mb)
Winds:from the W (280 degrees) at 14 MPH (12 knots; 6.2 m/s)
Visibility:10 or more sm (16+ km)
Ceiling:at least 12,000 feet AGL
Clouds:sky clear below 12,000 feet AGL
QC Flag:automated observation with no human augmentation
Text:KOCQ 302115Z AUTO 29011G17KT 10SM CLR M13/M25 A3034 RMK AO1 T11351246
Temperature:-13.5°C ( 8°F)
Dewpoint:-24.6°C (-12°F) [RH = 39%]
Pressure (altimeter):30.34 inches Hg (1027.5 mb)
Winds:from the WNW (290 degrees) at 13 MPH (11 knots; 5.7 m/s) gusting to 20 MPH (17 knots; 8.7 m/s)
Visibility:10 or more sm (16+ km)
Ceiling:at least 12,000 feet AGL
Clouds:sky clear below 12,000 feet AGL
QC Flag:automated observation with no human augmentation
Text:KOCQ 302055Z AUTO 28012G19KT 10SM CLR M14/M25 A3033 RMK AO1 T11361246
Temperature:-13.6°C ( 8°F)
Dewpoint:-24.6°C (-12°F) [RH = 39%]
Pressure (altimeter):30.33 inches Hg (1027.2 mb)
Winds:from the W (280 degrees) at 14 MPH (12 knots; 6.2 m/s) gusting to 22 MPH (19 knots; 9.8 m/s)
Visibility:10 or more sm (16+ km)
Ceiling:at least 12,000 feet AGL
Clouds:sky clear below 12,000 feet AGL
QC Flag:automated observation with no human augmentation
Text:KOCQ 302035Z AUTO 28014G17KT 10SM CLR M14/M24 A3032 RMK AO1 T11371243
Temperature:-13.7°C ( 7°F)
Dewpoint:-24.3°C (-12°F) [RH = 40%]
Pressure (altimeter):30.32 inches Hg (1026.8 mb)
Winds:from the W (280 degrees) at 16 MPH (14 knots; 7.2 m/s) gusting to 20 MPH (17 knots; 8.7 m/s)
Visibility:10 or more sm (16+ km)
Ceiling:at least 12,000 feet AGL
Clouds:sky clear below 12,000 feet AGL
QC Flag:automated observation with no human augmentation
Text:KOCQ 302015Z AUTO 28010G19KT 10SM CLR M14/M25 A3032 RMK AO1 T11361249
Temperature:-13.6°C ( 8°F)
Dewpoint:-24.9°C (-13°F) [RH = 38%]
Pressure (altimeter):30.32 inches Hg (1026.8 mb)
Winds:from the W (280 degrees) at 12 MPH (10 knots; 5.1 m/s) gusting to 22 MPH (19 knots; 9.8 m/s)
Visibility:10 or more sm (16+ km)
Ceiling:at least 12,000 feet AGL
Clouds:sky clear below 12,000 feet AGL
QC Flag:automated observation with no human augmentation
Text:KOCQ 301955Z AUTO 29010G18KT 10SM CLR M14/M24 A3031 RMK AO1 T11381244
Temperature:-13.8°C ( 7°F)
Dewpoint:-24.4°C (-12°F) [RH = 40%]
Pressure (altimeter):30.31 inches Hg (1026.5 mb)
Winds:from the WNW (290 degrees) at 12 MPH (10 knots; 5.1 m/s) gusting to 21 MPH (18 knots; 9.3 m/s)
Visibility:10 or more sm (16+ km)
Ceiling:at least 12,000 feet AGL
Clouds:sky clear below 12,000 feet AGL
QC Flag:automated observation with no human augmentation
Text:KOCQ 301935Z AUTO 29011G17KT 10SM CLR M14/M24 A3031 RMK AO1 T11401244
Temperature:-14.0°C ( 7°F)
Dewpoint:-24.4°C (-12°F) [RH = 41%]
Pressure (altimeter):30.31 inches Hg (1026.5 mb)
Winds:from the WNW (290 degrees) at 13 MPH (11 knots; 5.7 m/s) gusting to 20 MPH (17 knots; 8.7 m/s)
Visibility:10 or more sm (16+ km)
Ceiling:at least 12,000 feet AGL
Clouds:sky clear below 12,000 feet AGL
QC Flag:automated observation with no human augmentation
Text:KOCQ 301915Z AUTO 29009G16KT 10SM CLR M14/M24 A3031 RMK AO1 T11381243
Temperature:-13.8°C ( 7°F)
Dewpoint:-24.3°C (-12°F) [RH = 41%]
Pressure (altimeter):30.31 inches Hg (1026.5 mb)
Winds:from the WNW (290 degrees) at 10 MPH (9 knots; 4.6 m/s) gusting to 18 MPH (16 knots; 8.2 m/s)
Visibility:10 or more sm (16+ km)
Ceiling:at least 12,000 feet AGL
Clouds:sky clear below 12,000 feet AGL
QC Flag:automated observation with no human augmentation
Text:KOCQ 301855Z AUTO 27013G18KT 10SM CLR M14/M25 A3032 RMK AO1 T11411247
Temperature:-14.1°C ( 7°F)
Dewpoint:-24.7°C (-12°F) [RH = 40%]
Pressure (altimeter):30.32 inches Hg (1026.8 mb)
Winds:from the W (270 degrees) at 15 MPH (13 knots; 6.7 m/s) gusting to 21 MPH (18 knots; 9.3 m/s)
Visibility:10 or more sm (16+ km)
Ceiling:at least 12,000 feet AGL
Clouds:sky clear below 12,000 feet AGL
QC Flag:automated observation with no human augmentation
Text:KOCQ 301835Z AUTO 31009G18KT 10SM CLR M14/M25 A3032 RMK AO1 T11431251
Temperature:-14.3°C ( 6°F)
Dewpoint:-25.1°C (-13°F) [RH = 39%]
Pressure (altimeter):30.32 inches Hg (1026.8 mb)
Winds:from the NW (310 degrees) at 10 MPH (9 knots; 4.6 m/s) gusting to 21 MPH (18 knots; 9.3 m/s)
Visibility:10 or more sm (16+ km)
Ceiling:at least 12,000 feet AGL
Clouds:sky clear below 12,000 feet AGL
QC Flag:automated observation with no human augmentation
Text:KOCQ 301755Z AUTO 29012G20KT 10SM CLR M15/M25 A3034 RMK AO1 T11501246 11150 21180
Temperature:-15.0°C ( 5°F)
Dewpoint:-24.6°C (-12°F) [RH = 44%]
Pressure (altimeter):30.34 inches Hg (1027.5 mb)
Winds:from the WNW (290 degrees) at 14 MPH (12 knots; 6.2 m/s) gusting to 23 MPH (20 knots; 10.3 m/s)
Visibility:10 or more sm (16+ km)
Ceiling:at least 12,000 feet AGL
Clouds:sky clear below 12,000 feet AGL
QC Flag:automated observation with no human augmentation
Text:KOCQ 301735Z AUTO 29010G20KT 10SM CLR M15/M24 A3035 RMK AO1 T11541241
Temperature:-15.4°C ( 4°F)
Dewpoint:-24.1°C (-11°F) [RH = 47%]
Pressure (altimeter):30.35 inches Hg (1027.9 mb)
Winds:from the WNW (290 degrees) at 12 MPH (10 knots; 5.1 m/s) gusting to 23 MPH (20 knots; 10.3 m/s)
Visibility:10 or more sm (16+ km)
Ceiling:at least 12,000 feet AGL
Clouds:sky clear below 12,000 feet AGL
QC Flag:automated observation with no human augmentation
Text:KOCQ 301715Z AUTO 28015G18KT 10SM CLR M16/M24 A3036 RMK AO1 T11581236
Temperature:-15.8°C ( 4°F)
Dewpoint:-23.6°C (-10°F) [RH = 51%]
Pressure (altimeter):30.36 inches Hg (1028.2 mb)
Winds:from the W (280 degrees) at 17 MPH (15 knots; 7.7 m/s) gusting to 21 MPH (18 knots; 9.3 m/s)
Visibility:10 or more sm (16+ km)
Ceiling:at least 12,000 feet AGL
Clouds:sky clear below 12,000 feet AGL
QC Flag:automated observation with no human augmentation
Text:KOCQ 301655Z AUTO 28013G22KT 10SM CLR M16/M23 A3036 RMK AO1 T11621231
Temperature:-16.2°C ( 3°F)
Dewpoint:-23.1°C (-10°F) [RH = 55%]
Pressure (altimeter):30.36 inches Hg (1028.2 mb)
Winds:from the W (280 degrees) at 15 MPH (13 knots; 6.7 m/s) gusting to 25 MPH (22 knots; 11.3 m/s)
Visibility:10 or more sm (16+ km)
Ceiling:at least 12,000 feet AGL
Clouds:sky clear below 12,000 feet AGL
QC Flag:automated observation with no human augmentation
Text:KOCQ 301635Z AUTO 27017G21KT 10SM CLR M17/M23 A3036 RMK AO1 T11661230
Temperature:-16.6°C ( 2°F)
Dewpoint:-23.0°C ( -9°F) [RH = 58%]
Pressure (altimeter):30.36 inches Hg (1028.2 mb)
Winds:from the W (270 degrees) at 20 MPH (17 knots; 8.7 m/s) gusting to 24 MPH (21 knots; 10.8 m/s)
Visibility:10 or more sm (16+ km)
Ceiling:at least 12,000 feet AGL
Clouds:sky clear below 12,000 feet AGL
QC Flag:automated observation with no human augmentation
Text:KOCQ 301615Z AUTO 28014G19KT 10SM CLR M17/M23 A3037 RMK AO1 T11711231
Temperature:-17.1°C ( 1°F)
Dewpoint:-23.1°C (-10°F) [RH = 60%]
Pressure (altimeter):30.37 inches Hg (1028.5 mb)
Winds:from the W (280 degrees) at 16 MPH (14 knots; 7.2 m/s) gusting to 22 MPH (19 knots; 9.8 m/s)
Visibility:10 or more sm (16+ km)
Ceiling:at least 12,000 feet AGL
Clouds:sky clear below 12,000 feet AGL
QC Flag:automated observation with no human augmentation
Text:KOCQ 301555Z AUTO 28013G17KT 10SM CLR M17/M23 A3036 RMK AO1 T11711230
Temperature:-17.1°C ( 1°F)
Dewpoint:-23.0°C ( -9°F) [RH = 60%]
Pressure (altimeter):30.36 inches Hg (1028.2 mb)
Winds:from the W (280 degrees) at 15 MPH (13 knots; 6.7 m/s) gusting to 20 MPH (17 knots; 8.7 m/s)
Visibility:10 or more sm (16+ km)
Ceiling:at least 12,000 feet AGL
Clouds:sky clear below 12,000 feet AGL
QC Flag:automated observation with no human augmentation
Text:KOCQ 301535Z AUTO 27012KT 10SM CLR M17/M23 A3036 RMK AO1 T11711227
Temperature:-17.1°C ( 1°F)
Dewpoint:-22.7°C ( -9°F) [RH = 62%]
Pressure (altimeter):30.36 inches Hg (1028.2 mb)
Winds:from the W (270 degrees) at 14 MPH (12 knots; 6.2 m/s)
Visibility:10 or more sm (16+ km)
Ceiling:at least 12,000 feet AGL
Clouds:sky clear below 12,000 feet AGL
QC Flag:automated observation with no human augmentation
Text:KOCQ 301515Z AUTO 28011G20KT 10SM CLR M18/M23 A3036 RMK AO1 T11761230
Temperature:-17.6°C ( 0°F)
Dewpoint:-23.0°C ( -9°F) [RH = 63%]
Pressure (altimeter):30.36 inches Hg (1028.2 mb)
Winds:from the W (280 degrees) at 13 MPH (11 knots; 5.7 m/s) gusting to 23 MPH (20 knots; 10.3 m/s)
Visibility:10 or more sm (16+ km)
Ceiling:at least 12,000 feet AGL
Clouds:sky clear below 12,000 feet AGL
QC Flag:automated observation with no human augmentation